createdAt,value
2022-08-17T00:02:26.258Z,148957.31
2022-08-17T00:07:31.064Z,148932.41
2022-08-17T00:12:44.549Z,148896.19
2022-08-17T00:17:48.672Z,148887.47
2022-08-17T00:23:03.962Z,148881.25
2022-08-17T00:28:07.589Z,148871.28
2022-08-17T00:33:23.149Z,148862.56
2022-08-17T00:38:29.358Z,148860.03
2022-08-17T00:43:35.542Z,148848.81
2022-08-17T00:48:39.261Z,148835.13
2022-08-17T00:53:48.485Z,148815.19
2022-08-17T00:58:53.237Z,148800.19
2022-08-17T01:04:00.029Z,148792.72
2022-08-17T01:09:06.107Z,148787.75
2022-08-17T01:14:09.875Z,148795.22
2022-08-17T01:19:18.277Z,148805.22
2022-08-17T01:24:22.671Z,148822.66
2022-08-17T01:29:26.623Z,148840.09
2022-08-17T01:34:42.428Z,148862.56
2022-08-17T01:39:51.474Z,148875.00
2022-08-17T01:44:57.957Z,148880.00
2022-08-17T01:50:07.503Z,148889.97
2022-08-17T01:55:11.984Z,148894.94
2022-08-17T02:00:15.829Z,148889.97
2022-08-17T02:05:18.470Z,148882.50
2022-08-17T02:10:22.820Z,148850.06
2022-08-17T02:15:25.819Z,148817.69
2022-08-17T02:20:41.303Z,148774.06
2022-08-17T02:25:48.836Z,148740.38
2022-08-17T02:31:01.562Z,148717.91
2022-08-17T02:36:06.423Z,148678.03
2022-08-17T02:41:13.003Z,148653.13
2022-08-17T02:46:15.565Z,148630.75
2022-08-17T02:51:18.115Z,148593.34
2022-08-17T02:56:22.034Z,148572.19
2022-08-17T03:01:24.632Z,148558.44
2022-08-17T03:06:28.441Z,148548.50
2022-08-17T03:11:32.384Z,148548.50
2022-08-17T03:16:35.067Z,148551.00
2022-08-17T03:21:39.044Z,148575.94
2022-08-17T03:26:42.930Z,148607.03
2022-08-17T03:31:46.523Z,148628.19
2022-08-17T03:36:49.074Z,148651.91
2022-08-17T03:41:53.012Z,148660.63
2022-08-17T03:47:13.551Z,148674.31
2022-08-17T03:52:33.975Z,148668.06
2022-08-17T03:57:37.955Z,148661.84
2022-08-17T04:02:41.806Z,148655.63
2022-08-17T04:07:45.472Z,148643.19
2022-08-17T04:12:54.502Z,148645.66
2022-08-17T04:17:57.061Z,148639.44
2022-08-17T04:23:03.110Z,148653.13
2022-08-17T04:28:14.565Z,148673.06
2022-08-17T04:33:21.053Z,148681.78
2022-08-17T04:38:26.740Z,148676.78
2022-08-17T04:43:32.533Z,148683.03
2022-08-17T04:48:38.849Z,148691.78
2022-08-17T04:53:44.106Z,148712.94
2022-08-17T04:58:51.374Z,148730.41
2022-08-17T05:03:56.114Z,148742.88
2022-08-17T05:08:59.898Z,148751.63
2022-08-17T05:14:04.607Z,148772.81
2022-08-17T05:19:07.271Z,148790.25
2022-08-17T05:24:38.169Z,148835.13
2022-08-17T05:29:35.743Z,148903.66
2022-08-17T05:34:39.151Z,148944.88
2022-08-17T05:39:41.910Z,149044.63
2022-08-17T05:44:45.749Z,149100.75
2022-08-17T05:49:49.041Z,149186.88
2022-08-17T05:55:04.347Z,149286.69
2022-08-17T06:00:16.976Z,149407.81
2022-08-17T06:05:45.453Z,149468.97
2022-08-17T06:10:57.961Z,149616.41
2022-08-17T06:16:33.019Z,149617.66
2022-08-17T06:21:34.238Z,149662.56
2022-08-17T06:26:43.153Z,149678.84
2022-08-17T06:31:47.782Z,149652.59
2022-08-17T06:36:59.146Z,149655.09
2022-08-17T06:43:02.437Z,149908.88
2022-08-17T06:47:47.405Z,150347.88
2022-08-17T06:52:58.061Z,150106.44
2022-08-17T06:58:16.186Z,149893.84
2022-08-17T07:03:29.191Z,150010.09
2022-08-17T07:08:39.287Z,150091.44
2022-08-17T07:13:51.410Z,149978.84
2022-08-17T07:18:56.894Z,150281.59
2022-08-17T07:24:29.189Z,150229.03
2022-08-17T07:29:36.488Z,149996.34
2022-08-17T07:35:15.404Z,149791.34
2022-08-17T07:40:26.398Z,149656.34
2022-08-17T07:45:48.629Z,149648.84
2022-08-17T07:50:54.055Z,149756.34
2022-08-17T07:55:56.866Z,149832.53
2022-08-17T08:01:09.725Z,150088.94
2022-08-17T08:06:23.572Z,150436.81
2022-08-17T08:11:34.498Z,150499.38
2022-08-17T08:16:37.363Z,150349.13
2022-08-17T08:21:56.317Z,150306.59
2022-08-17T08:27:08.739Z,150251.53
2022-08-17T08:32:19.358Z,150347.88
2022-08-17T08:37:37.963Z,150309.09
2022-08-17T08:42:50.620Z,150391.75
2022-08-17T08:48:23.025Z,150496.88
2022-08-17T08:53:43.383Z,150572.03
2022-08-17T08:58:52.796Z,150692.22
2022-08-17T09:04:25.049Z,150729.84
2022-08-17T09:09:45.405Z,150900.28
2022-08-17T09:14:55.422Z,150801.25
2022-08-17T09:20:04.928Z,150861.41
2022-08-17T09:25:12.264Z,150840.09
2022-08-17T09:30:15.277Z,150694.72
2022-08-17T09:35:22.787Z,150709.78
2022-08-17T09:40:29.988Z,150815.00
2022-08-17T09:45:36.420Z,150870.19
2022-08-17T09:51:03.940Z,150875.19
2022-08-17T09:56:23.983Z,150902.78
2022-08-17T10:01:36.395Z,150837.53
2022-08-17T10:06:50.829Z,150577.03
2022-08-17T10:12:20.452Z,150585.78
2022-08-17T10:17:29.453Z,150595.78
2022-08-17T10:22:59.471Z,150585.78
2022-08-17T10:28:10.693Z,150408.00
2022-08-17T10:33:27.846Z,150381.69
2022-08-17T10:38:38.576Z,150334.13
2022-08-17T10:44:35.428Z,150281.59
2022-08-17T10:49:33.835Z,150252.78
2022-08-17T10:54:46.583Z,150214.00
2022-08-17T10:59:52.877Z,150206.50
2022-08-17T11:05:18.795Z,150230.28
2022-08-17T11:10:51.941Z,150251.53
2022-08-17T11:16:08.860Z,150299.09
2022-08-17T11:21:37.679Z,150290.34
2022-08-17T11:26:46.233Z,150279.09
2022-08-17T11:32:05.037Z,150305.34
2022-08-17T11:37:33.105Z,150394.25
2022-08-17T11:42:54.254Z,150379.19
2022-08-17T11:48:28.454Z,150362.88
2022-08-17T11:54:31.566Z,150239.03
2022-08-17T11:59:58.648Z,150251.53
2022-08-17T12:05:26.075Z,150234.03
2022-08-17T12:10:32.435Z,150181.44
2022-08-17T12:15:40.330Z,150176.44
2022-08-17T12:20:50.948Z,150276.59
2022-08-17T12:26:00.592Z,150304.09
2022-08-17T12:31:05.768Z,150211.50
2022-08-17T12:36:15.875Z,150071.38
2022-08-17T12:41:32.093Z,150018.81
2022-08-17T12:46:47.411Z,149980.09
2022-08-17T12:51:57.531Z,149855.06
2022-08-17T12:57:06.357Z,149751.34
2022-08-17T13:02:19.791Z,149651.34
2022-08-17T13:07:35.100Z,149437.75
2022-08-17T13:12:37.779Z,149346.66
2022-08-17T13:17:40.615Z,149334.19
2022-08-17T13:22:45.293Z,149282.97
2022-08-17T13:27:51.581Z,149259.22
2022-08-17T13:32:55.917Z,149224.31
2022-08-17T13:38:05.470Z,149097.03
2022-08-17T13:43:08.969Z,149072.06
2022-08-17T13:48:20.495Z,149075.78
2022-08-17T13:53:27.597Z,149093.28
2022-08-17T13:58:33.315Z,149092.00
2022-08-17T14:03:36.301Z,149084.53
2022-08-17T14:08:40.389Z,149077.03
2022-08-17T14:13:43.095Z,149094.53
2022-08-17T14:18:56.819Z,149110.75
2022-08-17T14:24:01.395Z,149154.44
2022-08-17T14:29:04.039Z,149183.13
2022-08-17T14:34:17.737Z,149191.84
2022-08-17T14:39:22.333Z,149254.22
2022-08-17T14:44:25.117Z,149341.66
2022-08-17T14:49:28.125Z,149419.03
2022-08-17T14:54:34.057Z,149470.22
2022-08-17T14:59:37.306Z,149553.91
2022-08-17T15:04:48.043Z,149576.41
2022-08-17T15:09:52.439Z,149722.59
2022-08-17T15:14:55.208Z,149737.63
2022-08-17T15:19:57.893Z,149863.81
2022-08-17T15:25:05.769Z,149846.28
2022-08-17T15:30:10.488Z,149876.31
2022-08-17T15:35:13.971Z,149848.81
2022-08-17T15:40:18.084Z,149707.59
2022-08-17T15:45:24.662Z,149593.88
2022-08-17T15:50:27.406Z,149493.94
2022-08-17T15:55:33.387Z,149415.28
2022-08-17T16:00:51.582Z,149412.78
2022-08-17T16:06:00.464Z,149349.16
2022-08-17T16:11:05.080Z,149334.19
2022-08-17T16:16:08.392Z,149292.94
2022-08-17T16:21:31.315Z,149256.72
2022-08-17T16:26:49.048Z,149281.72
2022-08-17T16:31:52.208Z,149330.38
2022-08-17T16:36:56.505Z,149324.09
2022-08-17T16:42:02.707Z,149249.25
2022-08-17T16:47:07.414Z,149171.91
2022-08-17T16:52:11.395Z,149124.44
2022-08-17T16:57:17.520Z,149079.53
2022-08-17T17:02:29.559Z,148986.03
2022-08-17T17:07:53.436Z,148949.84
2022-08-17T17:13:02.489Z,148952.34
2022-08-17T17:18:12.613Z,148972.28
2022-08-17T17:23:31.136Z,149013.44
2022-08-17T17:28:44.187Z,149003.47
2022-08-17T17:33:52.490Z,148981.03
2022-08-17T17:39:00.583Z,148943.63
2022-08-17T17:44:09.037Z,148889.97
2022-08-17T17:49:14.205Z,148863.81
2022-08-17T17:54:33.323Z,148833.88
2022-08-17T17:59:44.829Z,148802.72
2022-08-17T18:05:00.660Z,148780.28
2022-08-17T18:10:19.573Z,148759.09
2022-08-17T18:15:37.873Z,148727.94
2022-08-17T18:20:53.479Z,148701.75
2022-08-17T18:25:59.415Z,148696.75
2022-08-17T18:31:20.623Z,148720.47
2022-08-17T18:36:28.998Z,148752.88
2022-08-17T18:41:41.527Z,148774.06
2022-08-17T18:46:45.599Z,148782.75
2022-08-17T18:51:50.333Z,148764.09
2022-08-17T18:56:55.752Z,148759.09
2022-08-17T19:02:16.096Z,148747.91
2022-08-17T19:07:29.293Z,148740.38
2022-08-17T19:12:38.144Z,148710.47
2022-08-17T19:17:47.779Z,148688.03
2022-08-17T19:23:01.896Z,148704.22
2022-08-17T19:28:21.684Z,148714.19
2022-08-17T19:33:27.482Z,148712.94
2022-08-17T19:38:41.477Z,148674.31
2022-08-17T19:44:09.811Z,148648.16
2022-08-17T19:49:22.092Z,148617.00
2022-08-17T19:54:47.255Z,148583.38
2022-08-17T19:59:57.538Z,148541.03
2022-08-17T20:05:06.597Z,148516.16
2022-08-17T20:10:14.496Z,148528.59
2022-08-17T20:15:25.462Z,148507.38
2022-08-17T20:20:37.756Z,148518.63
2022-08-17T20:25:47.308Z,148554.72
2022-08-17T20:30:50.780Z,148569.66
2022-08-17T20:36:18.722Z,148583.38
2022-08-17T20:41:22.961Z,148580.91
2022-08-17T20:46:42.350Z,148583.38
2022-08-17T20:52:01.420Z,148582.16
2022-08-17T20:57:09.224Z,148575.94
2022-08-17T21:02:21.363Z,148578.41
2022-08-17T21:07:30.027Z,148583.38
2022-08-17T21:12:44.737Z,148590.84
2022-08-17T21:17:51.346Z,148590.84
2022-08-17T21:23:12.341Z,148593.34
2022-08-17T21:28:30.017Z,148618.25
2022-08-17T21:33:38.978Z,148610.78
2022-08-17T21:38:57.644Z,148620.72
2022-08-17T21:44:06.357Z,148623.22
2022-08-17T21:49:13.958Z,148590.84
2022-08-17T21:54:31.883Z,148549.75
2022-08-17T21:59:38.390Z,148541.03
2022-08-17T22:04:42.542Z,148519.88
2022-08-17T22:09:48.236Z,148514.91
2022-08-17T22:15:00.429Z,148484.94
2022-08-17T22:20:08.610Z,148441.34
2022-08-17T22:25:22.456Z,148417.72
2022-08-17T22:30:33.362Z,148416.47
2022-08-17T22:35:41.670Z,148428.91
2022-08-17T22:40:49.669Z,148455.09
2022-08-17T22:45:55.523Z,148462.53
2022-08-17T22:51:12.849Z,148477.47
2022-08-17T22:56:38.494Z,148501.16
2022-08-17T23:01:42.943Z,148513.66
2022-08-17T23:06:45.535Z,148521.13
2022-08-17T23:11:53.419Z,148531.06
2022-08-17T23:16:56.290Z,148539.78
2022-08-17T23:21:59.581Z,148546.00
2022-08-17T23:27:07.322Z,148536.06
2022-08-17T23:32:12.231Z,148542.28
2022-08-17T23:37:15.437Z,148537.31
2022-08-17T23:42:22.024Z,148536.06
2022-08-17T23:47:24.665Z,148529.84
2022-08-17T23:52:27.973Z,148512.38
2022-08-17T23:57:33.780Z,148511.13
